sensor_id;sensor_type;location;lat;lon;timestamp;P1;durP1;ratioP1;P2;durP2;ratioP2
4355;SDS011;64374;51.482;7.408;2023-02-18T00:01:47;32.43;;;25.40;;
4355;SDS011;64374;51.482;7.408;2023-02-18T00:04:16;30.47;;;22.90;;
4355;SDS011;64374;51.482;7.408;2023-02-18T00:06:44;31.80;;;24.20;;
4355;SDS011;64374;51.482;7.408;2023-02-18T00:09:14;31.07;;;24.67;;
4355;SDS011;64374;51.482;7.408;2023-02-18T00:11:42;27.43;;;20.37;;
4355;SDS011;64374;51.482;7.408;2023-02-18T00:14:12;33.13;;;23.67;;
4355;SDS011;64374;51.482;7.408;2023-02-18T00:16:42;31.77;;;23.90;;
4355;SDS011;64374;51.482;7.408;2023-02-18T00:19:12;33.83;;;21.90;;
4355;SDS011;64374;51.482;7.408;2023-02-18T00:21:41;30.73;;;22.97;;
4355;SDS011;64374;51.482;7.408;2023-02-18T00:24:11;35.30;;;23.70;;
4355;SDS011;64374;51.482;7.408;2023-02-18T00:26:43;30.27;;;22.30;;
4355;SDS011;64374;51.482;7.408;2023-02-18T00:29:12;32.30;;;21.83;;
4355;SDS011;64374;51.482;7.408;2023-02-18T00:31:40;29.03;;;20.60;;
4355;SDS011;64374;51.482;7.408;2023-02-18T00:34:09;32.70;;;22.23;;
4355;SDS011;64374;51.482;7.408;2023-02-18T00:36:40;28.23;;;21.00;;
4355;SDS011;64374;51.482;7.408;2023-02-18T00:39:10;34.43;;;23.03;;
4355;SDS011;64374;51.482;7.408;2023-02-18T00:41:39;31.97;;;21.63;;
4355;SDS011;64374;51.482;7.408;2023-02-18T00:44:10;31.73;;;24.30;;
4355;SDS011;64374;51.482;7.408;2023-02-18T00:46:39;33.30;;;23.77;;
4355;SDS011;64374;51.482;7.408;2023-02-18T00:49:08;29.40;;;22.03;;
4355;SDS011;64374;51.482;7.408;2023-02-18T00:51:36;32.87;;;22.70;;
4355;SDS011;64374;51.482;7.408;2023-02-18T00:54:06;32.27;;;23.90;;
4355;SDS011;64374;51.482;7.408;2023-02-18T00:56:35;31.90;;;23.77;;
4355;SDS011;64374;51.482;7.408;2023-02-18T00:59:03;36.37;;;24.53;;
4355;SDS011;64374;51.482;7.408;2023-02-18T01:01:33;35.00;;;23.30;;
4355;SDS011;64374;51.482;7.408;2023-02-18T01:04:01;37.93;;;24.80;;
4355;SDS011;64374;51.482;7.408;2023-02-18T01:06:30;38.13;;;25.37;;
4355;SDS011;64374;51.482;7.408;2023-02-18T01:08:58;32.90;;;23.37;;
4355;SDS011;64374;51.482;7.408;2023-02-18T01:11:28;35.77;;;24.03;;
4355;SDS011;64374;51.482;7.408;2023-02-18T01:13:56;35.40;;;22.60;;
4355;SDS011;64374;51.482;7.408;2023-02-18T01:16:24;30.80;;;21.53;;
4355;SDS011;64374;51.482;7.408;2023-02-18T01:18:55;33.43;;;22.40;;
4355;SDS011;64374;51.482;7.408;2023-02-18T01:21:24;33.73;;;19.93;;
4355;SDS011;64374;51.482;7.408;2023-02-18T01:23:54;35.10;;;21.80;;
4355;SDS011;64374;51.482;7.408;2023-02-18T01:26:23;29.70;;;20.10;;
4355;SDS011;64374;51.482;7.408;2023-02-18T01:28:51;31.77;;;20.10;;
4355;SDS011;64374;51.482;7.408;2023-02-18T01:31:19;26.70;;;18.33;;
4355;SDS011;64374;51.482;7.408;2023-02-18T01:33:51;26.50;;;19.10;;
4355;SDS011;64374;51.482;7.408;2023-02-18T01:36:29;28.30;;;18.43;;
4355;SDS011;64374;51.482;7.408;2023-02-18T01:38:58;23.90;;;17.10;;
4355;SDS011;64374;51.482;7.408;2023-02-18T01:41:26;31.60;;;18.63;;
4355;SDS011;64374;51.482;7.408;2023-02-18T01:46:44;31.30;;;19.47;;
4355;SDS011;64374;51.482;7.408;2023-02-18T01:49:15;34.13;;;20.10;;
4355;SDS011;64374;51.482;7.408;2023-02-18T01:51:48;31.10;;;19.23;;
4355;SDS011;64374;51.482;7.408;2023-02-18T01:54:21;33.00;;;21.10;;
4355;SDS011;64374;51.482;7.408;2023-02-18T01:56:56;36.00;;;20.67;;
4355;SDS011;64374;51.482;7.408;2023-02-18T01:59:36;28.57;;;18.73;;
4355;SDS011;64374;51.482;7.408;2023-02-18T02:02:07;25.73;;;16.93;;
4355;SDS011;64374;51.482;7.408;2023-02-18T02:04:38;30.83;;;19.67;;
4355;SDS011;64374;51.482;7.408;2023-02-18T02:07:17;25.00;;;17.43;;
4355;SDS011;64374;51.482;7.408;2023-02-18T02:09:53;33.03;;;19.60;;
4355;SDS011;64374;51.482;7.408;2023-02-18T02:12:35;34.30;;;19.57;;
4355;SDS011;64374;51.482;7.408;2023-02-18T02:15:27;23.20;;;17.33;;
4355;SDS011;64374;51.482;7.408;2023-02-18T02:18:04;25.80;;;13.73;;
4355;SDS011;64374;51.482;7.408;2023-02-18T02:21:10;19.67;;;14.90;;
4355;SDS011;64374;51.482;7.408;2023-02-18T02:24:12;24.50;;;17.57;;
4355;SDS011;64374;51.482;7.408;2023-02-18T02:26:58;24.97;;;15.20;;
4355;SDS011;64374;51.482;7.408;2023-02-18T02:33:03;20.20;;;15.17;;
4355;SDS011;64374;51.482;7.408;2023-02-18T02:35:52;21.30;;;14.10;;
4355;SDS011;64374;51.482;7.408;2023-02-18T02:38:33;18.93;;;13.77;;
4355;SDS011;64374;51.482;7.408;2023-02-18T02:41:14;23.10;;;13.90;;
4355;SDS011;64374;51.482;7.408;2023-02-18T02:43:55;17.67;;;13.63;;
4355;SDS011;64374;51.482;7.408;2023-02-18T02:46:34;20.20;;;12.73;;
4355;SDS011;64374;51.482;7.408;2023-02-18T02:49:07;17.57;;;13.50;;
4355;SDS011;64374;51.482;7.408;2023-02-18T02:51:49;18.30;;;13.30;;
4355;SDS011;64374;51.482;7.408;2023-02-18T02:54:27;17.83;;;12.23;;
4355;SDS011;64374;51.482;7.408;2023-02-18T02:57:07;15.57;;;10.50;;
4355;SDS011;64374;51.482;7.408;2023-02-18T03:00:12;16.03;;;11.33;;
4355;SDS011;64374;51.482;7.408;2023-02-18T03:02:47;15.80;;;11.10;;
4355;SDS011;64374;51.482;7.408;2023-02-18T03:05:42;14.60;;;10.20;;
4355;SDS011;64374;51.482;7.408;2023-02-18T03:08:27;12.63;;;9.33;;
4355;SDS011;64374;51.482;7.408;2023-02-18T03:11:06;14.60;;;10.43;;
4355;SDS011;64374;51.482;7.408;2023-02-18T03:13:41;13.47;;;9.47;;
4355;SDS011;64374;51.482;7.408;2023-02-18T03:16:25;14.50;;;10.10;;
4355;SDS011;64374;51.482;7.408;2023-02-18T03:19:02;12.57;;;8.63;;
4355;SDS011;64374;51.482;7.408;2023-02-18T03:21:38;12.27;;;9.33;;
4355;SDS011;64374;51.482;7.408;2023-02-18T03:24:14;10.53;;;8.90;;
4355;SDS011;64374;51.482;7.408;2023-02-18T03:26:47;11.40;;;9.27;;
4355;SDS011;64374;51.482;7.408;2023-02-18T03:29:39;12.80;;;9.60;;
4355;SDS011;64374;51.482;7.408;2023-02-18T03:32:11;14.50;;;10.50;;
4355;SDS011;64374;51.482;7.408;2023-02-18T03:34:44;12.57;;;9.93;;
4355;SDS011;64374;51.482;7.408;2023-02-18T03:37:19;11.00;;;9.43;;
4355;SDS011;64374;51.482;7.408;2023-02-18T03:39:52;13.20;;;8.57;;
4355;SDS011;64374;51.482;7.408;2023-02-18T03:42:25;14.60;;;10.10;;
4355;SDS011;64374;51.482;7.408;2023-02-18T03:44:54;13.77;;;10.20;;
4355;SDS011;64374;51.482;7.408;2023-02-18T03:47:22;16.50;;;10.30;;
4355;SDS011;64374;51.482;7.408;2023-02-18T03:49:51;14.57;;;9.70;;
4355;SDS011;64374;51.482;7.408;2023-02-18T03:52:19;15.20;;;10.03;;
4355;SDS011;64374;51.482;7.408;2023-02-18T03:54:49;11.50;;;9.50;;
4355;SDS011;64374;51.482;7.408;2023-02-18T03:57:19;15.03;;;10.37;;
4355;SDS011;64374;51.482;7.408;2023-02-18T03:59:50;13.70;;;10.30;;
4355;SDS011;64374;51.482;7.408;2023-02-18T04:02:19;13.93;;;9.87;;
4355;SDS011;64374;51.482;7.408;2023-02-18T04:04:48;12.10;;;8.90;;
4355;SDS011;64374;51.482;7.408;2023-02-18T04:07:16;11.80;;;8.30;;
4355;SDS011;64374;51.482;7.408;2023-02-18T04:09:45;14.27;;;9.20;;
4355;SDS011;64374;51.482;7.408;2023-02-18T04:12:14;12.67;;;8.73;;
4355;SDS011;64374;51.482;7.408;2023-02-18T04:14:43;13.50;;;9.80;;
4355;SDS011;64374;51.482;7.408;2023-02-18T04:17:11;16.00;;;10.80;;
4355;SDS011;64374;51.482;7.408;2023-02-18T04:19:40;16.60;;;11.20;;
4355;SDS011;64374;51.482;7.408;2023-02-18T04:22:08;14.17;;;8.93;;
4355;SDS011;64374;51.482;7.408;2023-02-18T04:24:36;13.10;;;9.30;;
4355;SDS011;64374;51.482;7.408;2023-02-18T04:27:05;15.77;;;11.07;;
4355;SDS011;64374;51.482;7.408;2023-02-18T04:29:35;14.30;;;10.77;;
4355;SDS011;64374;51.482;7.408;2023-02-18T04:32:04;14.40;;;10.43;;
4355;SDS011;64374;51.482;7.408;2023-02-18T04:34:34;15.20;;;11.30;;
4355;SDS011;64374;51.482;7.408;2023-02-18T04:37:04;19.33;;;11.50;;
4355;SDS011;64374;51.482;7.408;2023-02-18T04:39:32;18.63;;;11.20;;
4355;SDS011;64374;51.482;7.408;2023-02-18T04:42:00;15.87;;;11.17;;
4355;SDS011;64374;51.482;7.408;2023-02-18T04:44:36;16.60;;;10.50;;
4355;SDS011;64374;51.482;7.408;2023-02-18T04:47:08;15.10;;;9.17;;
4355;SDS011;64374;51.482;7.408;2023-02-18T04:49:38;17.57;;;10.03;;
4355;SDS011;64374;51.482;7.408;2023-02-18T04:52:06;15.10;;;10.37;;
4355;SDS011;64374;51.482;7.408;2023-02-18T04:54:34;12.27;;;8.60;;
4355;SDS011;64374;51.482;7.408;2023-02-18T04:57:04;9.40;;;6.77;;
4355;SDS011;64374;51.482;7.408;2023-02-18T04:59:33;13.00;;;7.30;;
4355;SDS011;64374;51.482;7.408;2023-02-18T05:02:03;11.57;;;7.30;;
4355;SDS011;64374;51.482;7.408;2023-02-18T05:04:31;9.40;;;6.37;;
4355;SDS011;64374;51.482;7.408;2023-02-18T05:07:00;7.50;;;6.03;;
4355;SDS011;64374;51.482;7.408;2023-02-18T05:09:28;7.80;;;5.70;;
4355;SDS011;64374;51.482;7.408;2023-02-18T05:11:57;3.90;;;3.57;;
4355;SDS011;64374;51.482;7.408;2023-02-18T05:14:25;5.90;;;4.40;;
4355;SDS011;64374;51.482;7.408;2023-02-18T05:16:53;4.60;;;3.50;;
4355;SDS011;64374;51.482;7.408;2023-02-18T05:19:23;5.27;;;3.47;;
4355;SDS011;64374;51.482;7.408;2023-02-18T05:21:51;4.10;;;3.47;;
4355;SDS011;64374;51.482;7.408;2023-02-18T05:24:20;4.30;;;3.13;;
4355;SDS011;64374;51.482;7.408;2023-02-18T05:26:51;3.40;;;3.07;;
4355;SDS011;64374;51.482;7.408;2023-02-18T05:29:19;4.30;;;3.27;;
4355;SDS011;64374;51.482;7.408;2023-02-18T05:31:47;3.03;;;2.73;;
4355;SDS011;64374;51.482;7.408;2023-02-18T05:34:16;2.30;;;2.10;;
4355;SDS011;64374;51.482;7.408;2023-02-18T05:36:45;2.93;;;2.63;;
4355;SDS011;64374;51.482;7.408;2023-02-18T05:39:14;2.60;;;1.70;;
4355;SDS011;64374;51.482;7.408;2023-02-18T05:41:43;2.37;;;2.17;;
4355;SDS011;64374;51.482;7.408;2023-02-18T05:44:11;3.80;;;2.00;;
4355;SDS011;64374;51.482;7.408;2023-02-18T05:47:00;2.40;;;1.87;;
4355;SDS011;64374;51.482;7.408;2023-02-18T05:49:32;1.73;;;1.63;;
4355;SDS011;64374;51.482;7.408;2023-02-18T05:52:04;1.60;;;1.50;;
4355;SDS011;64374;51.482;7.408;2023-02-18T05:54:33;3.53;;;1.93;;
4355;SDS011;64374;51.482;7.408;2023-02-18T05:57:03;1.60;;;1.50;;
4355;SDS011;64374;51.482;7.408;2023-02-18T05:59:31;1.83;;;1.73;;
4355;SDS011;64374;51.482;7.408;2023-02-18T06:02:03;2.07;;;1.87;;
4355;SDS011;64374;51.482;7.408;2023-02-18T06:04:32;2.10;;;1.90;;
4355;SDS011;64374;51.482;7.408;2023-02-18T06:07:00;1.90;;;1.80;;
4355;SDS011;64374;51.482;7.408;2023-02-18T06:09:30;4.13;;;2.80;;
4355;SDS011;64374;51.482;7.408;2023-02-18T06:11:59;1.40;;;1.30;;
4355;SDS011;64374;51.482;7.408;2023-02-18T06:14:27;3.23;;;1.47;;
4355;SDS011;64374;51.482;7.408;2023-02-18T06:16:55;1.40;;;1.30;;
4355;SDS011;64374;51.482;7.408;2023-02-18T06:19:23;1.60;;;1.50;;
4355;SDS011;64374;51.482;7.408;2023-02-18T06:21:52;1.80;;;1.70;;
4355;SDS011;64374;51.482;7.408;2023-02-18T06:24:21;1.60;;;1.50;;
4355;SDS011;64374;51.482;7.408;2023-02-18T06:26:51;1.43;;;1.33;;
4355;SDS011;64374;51.482;7.408;2023-02-18T06:29:19;2.50;;;1.53;;
4355;SDS011;64374;51.482;7.408;2023-02-18T06:31:48;1.70;;;1.60;;
4355;SDS011;64374;51.482;7.408;2023-02-18T06:34:26;1.93;;;1.77;;
4355;SDS011;64374;51.482;7.408;2023-02-18T06:36:54;2.07;;;1.50;;
4355;SDS011;64374;51.482;7.408;2023-02-18T06:39:23;1.47;;;1.37;;
4355;SDS011;64374;51.482;7.408;2023-02-18T06:41:54;2.10;;;2.00;;
4355;SDS011;64374;51.482;7.408;2023-02-18T06:44:23;2.00;;;1.90;;
4355;SDS011;64374;51.482;7.408;2023-02-18T06:46:51;1.47;;;1.37;;
4355;SDS011;64374;51.482;7.408;2023-02-18T06:49:19;2.23;;;2.03;;
4355;SDS011;64374;51.482;7.408;2023-02-18T06:51:48;2.30;;;2.10;;
4355;SDS011;64374;51.482;7.408;2023-02-18T06:54:16;1.97;;;1.77;;
4355;SDS011;64374;51.482;7.408;2023-02-18T06:56:45;2.87;;;1.80;;
4355;SDS011;64374;51.482;7.408;2023-02-18T06:59:15;1.90;;;1.80;;
4355;SDS011;64374;51.482;7.408;2023-02-18T07:01:44;2.60;;;2.40;;
4355;SDS011;64374;51.482;7.408;2023-02-18T07:04:12;1.80;;;1.70;;
4355;SDS011;64374;51.482;7.408;2023-02-18T07:06:41;2.30;;;2.10;;
4355;SDS011;64374;51.482;7.408;2023-02-18T07:09:09;2.33;;;1.70;;
4355;SDS011;64374;51.482;7.408;2023-02-18T07:11:39;2.27;;;2.07;;
4355;SDS011;64374;51.482;7.408;2023-02-18T07:14:07;1.93;;;1.83;;
4355;SDS011;64374;51.482;7.408;2023-02-18T07:16:37;2.57;;;2.27;;
4355;SDS011;64374;51.482;7.408;2023-02-18T07:19:07;2.37;;;2.17;;
4355;SDS011;64374;51.482;7.408;2023-02-18T07:21:38;2.10;;;1.90;;
4355;SDS011;64374;51.482;7.408;2023-02-18T07:24:06;1.97;;;1.80;;
4355;SDS011;64374;51.482;7.408;2023-02-18T07:26:34;2.03;;;1.83;;
4355;SDS011;64374;51.482;7.408;2023-02-18T07:29:04;3.13;;;2.57;;
4355;SDS011;64374;51.482;7.408;2023-02-18T07:31:32;2.93;;;2.03;;
4355;SDS011;64374;51.482;7.408;2023-02-18T07:34:01;2.77;;;2.53;;
4355;SDS011;64374;51.482;7.408;2023-02-18T07:36:30;4.53;;;2.23;;
4355;SDS011;64374;51.482;7.408;2023-02-18T07:38:58;2.37;;;2.20;;
4355;SDS011;64374;51.482;7.408;2023-02-18T07:41:26;2.33;;;2.03;;
4355;SDS011;64374;51.482;7.408;2023-02-18T07:43:57;3.73;;;2.00;;
4355;SDS011;64374;51.482;7.408;2023-02-18T07:46:26;2.23;;;2.03;;
4355;SDS011;64374;51.482;7.408;2023-02-18T07:48:57;2.27;;;2.07;;
4355;SDS011;64374;51.482;7.408;2023-02-18T07:51:27;2.07;;;1.90;;
4355;SDS011;64374;51.482;7.408;2023-02-18T07:53:56;3.73;;;2.40;;
4355;SDS011;64374;51.482;7.408;2023-02-18T07:56:24;2.20;;;1.80;;
4355;SDS011;64374;51.482;7.408;2023-02-18T07:58:52;5.23;;;2.20;;
4355;SDS011;64374;51.482;7.408;2023-02-18T08:01:20;2.90;;;2.40;;
4355;SDS011;64374;51.482;7.408;2023-02-18T08:03:49;2.10;;;1.90;;
4355;SDS011;64374;51.482;7.408;2023-02-18T08:06:20;1.53;;;1.43;;
4355;SDS011;64374;51.482;7.408;2023-02-18T08:08:53;2.90;;;1.90;;
4355;SDS011;64374;51.482;7.408;2023-02-18T08:11:21;4.37;;;1.83;;
4355;SDS011;64374;51.482;7.408;2023-02-18T08:13:49;1.67;;;1.53;;
4355;SDS011;64374;51.482;7.408;2023-02-18T08:16:18;1.27;;;1.17;;
4355;SDS011;64374;51.482;7.408;2023-02-18T08:18:48;2.50;;;1.50;;
4355;SDS011;64374;51.482;7.408;2023-02-18T08:21:20;1.10;;;1.00;;
4355;SDS011;64374;51.482;7.408;2023-02-18T08:23:50;1.77;;;1.30;;
4355;SDS011;64374;51.482;7.408;2023-02-18T08:26:20;1.47;;;1.30;;
4355;SDS011;64374;51.482;7.408;2023-02-18T08:28:49;1.63;;;1.30;;
4355;SDS011;64374;51.482;7.408;2023-02-18T08:31:18;2.33;;;1.30;;
4355;SDS011;64374;51.482;7.408;2023-02-18T08:33:49;1.10;;;1.00;;
4355;SDS011;64374;51.482;7.408;2023-02-18T08:36:18;2.10;;;1.00;;
4355;SDS011;64374;51.482;7.408;2023-02-18T08:38:46;4.70;;;1.30;;
4355;SDS011;64374;51.482;7.408;2023-02-18T08:41:16;4.70;;;0.90;;
4355;SDS011;64374;51.482;7.408;2023-02-18T08:43:45;0.90;;;0.87;;
4355;SDS011;64374;51.482;7.408;2023-02-18T08:46:14;2.40;;;1.40;;
4355;SDS011;64374;51.482;7.408;2023-02-18T08:48:59;0.80;;;0.80;;
4355;SDS011;64374;51.482;7.408;2023-02-18T08:51:27;1.60;;;1.50;;
4355;SDS011;64374;51.482;7.408;2023-02-18T08:53:59;1.27;;;1.00;;
4355;SDS011;64374;51.482;7.408;2023-02-18T08:56:29;1.40;;;1.27;;
4355;SDS011;64374;51.482;7.408;2023-02-18T08:58:58;1.40;;;1.00;;
4355;SDS011;64374;51.482;7.408;2023-02-18T09:01:26;2.67;;;1.10;;
4355;SDS011;64374;51.482;7.408;2023-02-18T09:03:58;1.40;;;1.30;;
4355;SDS011;64374;51.482;7.408;2023-02-18T09:06:26;2.50;;;1.10;;
4355;SDS011;64374;51.482;7.408;2023-02-18T09:08:54;1.73;;;1.10;;
4355;SDS011;64374;51.482;7.408;2023-02-18T09:11:23;6.23;;;2.10;;
4355;SDS011;64374;51.482;7.408;2023-02-18T09:13:53;3.30;;;1.43;;
4355;SDS011;64374;51.482;7.408;2023-02-18T09:16:21;2.87;;;1.50;;
4355;SDS011;64374;51.482;7.408;2023-02-18T09:18:52;7.27;;;2.10;;
4355;SDS011;64374;51.482;7.408;2023-02-18T09:21:22;5.30;;;2.00;;
4355;SDS011;64374;51.482;7.408;2023-02-18T09:23:50;10.17;;;2.17;;
4355;SDS011;64374;51.482;7.408;2023-02-18T09:26:20;5.43;;;2.30;;
4355;SDS011;64374;51.482;7.408;2023-02-18T09:28:49;9.73;;;2.23;;
4355;SDS011;64374;51.482;7.408;2023-02-18T09:31:21;7.13;;;2.43;;
4355;SDS011;64374;51.482;7.408;2023-02-18T09:33:51;4.80;;;2.30;;
4355;SDS011;64374;51.482;7.408;2023-02-18T09:36:25;3.63;;;1.93;;
4355;SDS011;64374;51.482;7.408;2023-02-18T09:38:55;6.90;;;2.40;;
4355;SDS011;64374;51.482;7.408;2023-02-18T09:41:27;3.27;;;2.50;;
4355;SDS011;64374;51.482;7.408;2023-02-18T09:44:01;5.93;;;2.20;;
4355;SDS011;64374;51.482;7.408;2023-02-18T09:46:38;6.50;;;2.67;;
4355;SDS011;64374;51.482;7.408;2023-02-18T09:49:12;5.53;;;2.00;;
4355;SDS011;64374;51.482;7.408;2023-02-18T09:51:43;10.10;;;2.90;;
4355;SDS011;64374;51.482;7.408;2023-02-18T09:54:13;6.90;;;2.70;;
4355;SDS011;64374;51.482;7.408;2023-02-18T09:56:44;9.90;;;2.60;;
4355;SDS011;64374;51.482;7.408;2023-02-18T09:59:14;8.17;;;2.77;;
4355;SDS011;64374;51.482;7.408;2023-02-18T10:01:50;11.07;;;3.30;;
4355;SDS011;64374;51.482;7.408;2023-02-18T10:04:21;11.10;;;3.10;;
4355;SDS011;64374;51.482;7.408;2023-02-18T10:06:55;4.47;;;2.50;;
4355;SDS011;64374;51.482;7.408;2023-02-18T10:09:27;7.70;;;4.10;;
4355;SDS011;64374;51.482;7.408;2023-02-18T10:12:01;8.73;;;2.83;;
4355;SDS011;64374;51.482;7.408;2023-02-18T10:14:41;6.30;;;3.40;;
4355;SDS011;64374;51.482;7.408;2023-02-18T10:17:12;10.00;;;2.80;;
4355;SDS011;64374;51.482;7.408;2023-02-18T10:19:44;7.93;;;2.83;;
4355;SDS011;64374;51.482;7.408;2023-02-18T10:22:16;7.60;;;3.57;;
4355;SDS011;64374;51.482;7.408;2023-02-18T10:24:47;7.83;;;3.73;;
4355;SDS011;64374;51.482;7.408;2023-02-18T10:27:22;8.13;;;3.00;;
4355;SDS011;64374;51.482;7.408;2023-02-18T10:29:53;12.90;;;3.90;;
4355;SDS011;64374;51.482;7.408;2023-02-18T10:32:25;11.10;;;3.77;;
4355;SDS011;64374;51.482;7.408;2023-02-18T10:34:58;10.00;;;4.17;;
4355;SDS011;64374;51.482;7.408;2023-02-18T10:37:37;10.73;;;2.80;;
4355;SDS011;64374;51.482;7.408;2023-02-18T10:40:16;6.57;;;2.90;;
4355;SDS011;64374;51.482;7.408;2023-02-18T10:43:01;12.77;;;3.90;;
4355;SDS011;64374;51.482;7.408;2023-02-18T10:45:40;15.10;;;2.77;;
4355;SDS011;64374;51.482;7.408;2023-02-18T10:48:21;8.13;;;2.97;;
4355;SDS011;64374;51.482;7.408;2023-02-18T10:51:08;14.43;;;3.20;;
4355;SDS011;64374;51.482;7.408;2023-02-18T10:53:42;6.40;;;3.10;;
4355;SDS011;64374;51.482;7.408;2023-02-18T10:56:30;7.73;;;3.73;;
4355;SDS011;64374;51.482;7.408;2023-02-18T10:59:04;10.37;;;3.83;;
4355;SDS011;64374;51.482;7.408;2023-02-18T11:01:40;6.73;;;3.03;;
4355;SDS011;64374;51.482;7.408;2023-02-18T11:04:15;12.30;;;3.50;;
4355;SDS011;64374;51.482;7.408;2023-02-18T11:06:47;7.80;;;3.50;;
4355;SDS011;64374;51.482;7.408;2023-02-18T11:09:23;8.30;;;3.10;;
4355;SDS011;64374;51.482;7.408;2023-02-18T11:11:58;8.67;;;4.07;;
4355;SDS011;64374;51.482;7.408;2023-02-18T11:14:42;9.87;;;4.10;;
4355;SDS011;64374;51.482;7.408;2023-02-18T11:17:19;6.33;;;2.50;;
4355;SDS011;64374;51.482;7.408;2023-02-18T11:19:54;10.53;;;3.47;;
4355;SDS011;64374;51.482;7.408;2023-02-18T11:22:25;10.00;;;2.67;;
4355;SDS011;64374;51.482;7.408;2023-02-18T11:24:59;10.33;;;3.27;;
4355;SDS011;64374;51.482;7.408;2023-02-18T11:27:30;11.37;;;2.73;;
4355;SDS011;64374;51.482;7.408;2023-02-18T11:30:13;8.10;;;2.97;;
4355;SDS011;64374;51.482;7.408;2023-02-18T11:32:48;12.80;;;2.77;;
4355;SDS011;64374;51.482;7.408;2023-02-18T11:35:20;6.90;;;2.70;;
4355;SDS011;64374;51.482;7.408;2023-02-18T11:37:51;7.83;;;3.30;;
4355;SDS011;64374;51.482;7.408;2023-02-18T11:40:21;9.43;;;2.67;;
4355;SDS011;64374;51.482;7.408;2023-02-18T11:42:52;7.40;;;2.73;;
4355;SDS011;64374;51.482;7.408;2023-02-18T11:45:32;9.17;;;2.90;;
4355;SDS011;64374;51.482;7.408;2023-02-18T11:48:05;5.80;;;2.37;;
4355;SDS011;64374;51.482;7.408;2023-02-18T11:50:37;5.50;;;2.73;;
4355;SDS011;64374;51.482;7.408;2023-02-18T11:53:26;5.10;;;2.70;;
4355;SDS011;64374;51.482;7.408;2023-02-18T11:55:56;5.37;;;2.37;;
4355;SDS011;64374;51.482;7.408;2023-02-18T11:58:30;4.40;;;2.80;;
4355;SDS011;64374;51.482;7.408;2023-02-18T12:01:05;3.40;;;2.30;;
4355;SDS011;64374;51.482;7.408;2023-02-18T12:03:43;9.67;;;2.83;;
4355;SDS011;64374;51.482;7.408;2023-02-18T12:06:21;5.37;;;2.80;;
4355;SDS011;64374;51.482;7.408;2023-02-18T12:08:55;8.87;;;3.07;;
4355;SDS011;64374;51.482;7.408;2023-02-18T12:11:29;5.77;;;2.60;;
4355;SDS011;64374;51.482;7.408;2023-02-18T12:14:02;3.90;;;2.43;;
4355;SDS011;64374;51.482;7.408;2023-02-18T12:16:32;7.77;;;2.70;;
4355;SDS011;64374;51.482;7.408;2023-02-18T12:19:09;5.83;;;2.90;;
4355;SDS011;64374;51.482;7.408;2023-02-18T12:21:58;2.83;;;2.30;;
4355;SDS011;64374;51.482;7.408;2023-02-18T12:24:34;4.07;;;2.57;;
4355;SDS011;64374;51.482;7.408;2023-02-18T12:27:21;3.13;;;2.30;;
4355;SDS011;64374;51.482;7.408;2023-02-18T12:30:02;7.37;;;2.80;;
4355;SDS011;64374;51.482;7.408;2023-02-18T12:32:50;4.10;;;2.80;;
4355;SDS011;64374;51.482;7.408;2023-02-18T12:35:31;3.70;;;2.70;;
4355;SDS011;64374;51.482;7.408;2023-02-18T12:38:20;5.30;;;3.93;;
4355;SDS011;64374;51.482;7.408;2023-02-18T12:41:17;3.13;;;2.70;;
4355;SDS011;64374;51.482;7.408;2023-02-18T12:44:14;5.63;;;3.07;;
4355;SDS011;64374;51.482;7.408;2023-02-18T12:46:58;3.47;;;2.63;;
4355;SDS011;64374;51.482;7.408;2023-02-18T12:49:51;4.83;;;3.23;;
4355;SDS011;64374;51.482;7.408;2023-02-18T12:52:39;4.10;;;3.00;;
4355;SDS011;64374;51.482;7.408;2023-02-18T12:55:31;3.27;;;3.03;;
4355;SDS011;64374;51.482;7.408;2023-02-18T12:58:14;3.90;;;3.00;;
4355;SDS011;64374;51.482;7.408;2023-02-18T13:00:55;6.17;;;4.10;;
4355;SDS011;64374;51.482;7.408;2023-02-18T13:10:00;7.40;;;5.30;;
4355;SDS011;64374;51.482;7.408;2023-02-18T13:12:40;4.93;;;3.80;;
4355;SDS011;64374;51.482;7.408;2023-02-18T13:15:13;4.40;;;3.93;;
4355;SDS011;64374;51.482;7.408;2023-02-18T13:17:48;6.80;;;5.13;;
4355;SDS011;64374;51.482;7.408;2023-02-18T13:20:19;6.97;;;5.10;;
4355;SDS011;64374;51.482;7.408;2023-02-18T13:22:51;9.17;;;5.90;;
4355;SDS011;64374;51.482;7.408;2023-02-18T13:25:20;7.50;;;5.47;;
4355;SDS011;64374;51.482;7.408;2023-02-18T13:27:52;8.70;;;6.73;;
4355;SDS011;64374;51.482;7.408;2023-02-18T13:30:33;8.30;;;5.70;;
4355;SDS011;64374;51.482;7.408;2023-02-18T13:33:12;11.10;;;5.60;;
4355;SDS011;64374;51.482;7.408;2023-02-18T13:35:45;8.13;;;5.53;;
4355;SDS011;64374;51.482;7.408;2023-02-18T13:38:25;5.47;;;4.77;;
4355;SDS011;64374;51.482;7.408;2023-02-18T13:41:07;13.07;;;5.83;;
4355;SDS011;64374;51.482;7.408;2023-02-18T13:43:37;8.57;;;5.70;;
4355;SDS011;64374;51.482;7.408;2023-02-18T13:46:08;6.60;;;5.10;;
4355;SDS011;64374;51.482;7.408;2023-02-18T13:48:43;6.80;;;4.87;;
4355;SDS011;64374;51.482;7.408;2023-02-18T13:51:26;6.53;;;5.50;;
4355;SDS011;64374;51.482;7.408;2023-02-18T13:54:00;7.37;;;5.60;;
4355;SDS011;64374;51.482;7.408;2023-02-18T13:56:34;7.57;;;5.43;;
4355;SDS011;64374;51.482;7.408;2023-02-18T13:59:08;6.03;;;5.20;;
4355;SDS011;64374;51.482;7.408;2023-02-18T14:01:46;6.97;;;4.30;;
4355;SDS011;64374;51.482;7.408;2023-02-18T14:04:35;7.40;;;4.90;;
4355;SDS011;64374;51.482;7.408;2023-02-18T14:13:16;10.47;;;5.93;;
4355;SDS011;64374;51.482;7.408;2023-02-18T14:16:06;9.50;;;6.33;;
4355;SDS011;64374;51.482;7.408;2023-02-18T14:18:59;8.03;;;6.33;;
4355;SDS011;64374;51.482;7.408;2023-02-18T14:21:38;9.60;;;6.70;;
4355;SDS011;64374;51.482;7.408;2023-02-18T14:24:09;10.50;;;7.73;;
4355;SDS011;64374;51.482;7.408;2023-02-18T14:26:42;14.27;;;8.07;;
4355;SDS011;64374;51.482;7.408;2023-02-18T14:29:14;10.03;;;7.70;;
4355;SDS011;64374;51.482;7.408;2023-02-18T14:32:02;10.80;;;8.27;;
4355;SDS011;64374;51.482;7.408;2023-02-18T14:34:42;17.37;;;10.30;;
4355;SDS011;64374;51.482;7.408;2023-02-18T14:40:55;13.30;;;10.40;;
4355;SDS011;64374;51.482;7.408;2023-02-18T14:43:38;15.40;;;11.30;;
4355;SDS011;64374;51.482;7.408;2023-02-18T14:46:43;17.03;;;11.40;;
4355;SDS011;64374;51.482;7.408;2023-02-18T14:49:27;16.80;;;11.30;;
4355;SDS011;64374;51.482;7.408;2023-02-18T14:52:08;20.47;;;11.83;;
4355;SDS011;64374;51.482;7.408;2023-02-18T14:54:44;18.13;;;11.57;;
4355;SDS011;64374;51.482;7.408;2023-02-18T14:57:14;20.23;;;12.73;;
4355;SDS011;64374;51.482;7.408;2023-02-18T14:59:46;20.90;;;13.47;;
4355;SDS011;64374;51.482;7.408;2023-02-18T15:02:17;20.60;;;12.77;;
4355;SDS011;64374;51.482;7.408;2023-02-18T15:04:49;22.87;;;13.73;;
4355;SDS011;64374;51.482;7.408;2023-02-18T15:07:18;21.43;;;14.03;;
4355;SDS011;64374;51.482;7.408;2023-02-18T15:09:48;23.30;;;12.20;;
4355;SDS011;64374;51.482;7.408;2023-02-18T15:12:20;21.47;;;14.80;;
4355;SDS011;64374;51.482;7.408;2023-02-18T15:14:52;25.93;;;15.60;;
4355;SDS011;64374;51.482;7.408;2023-02-18T15:17:22;24.43;;;13.63;;
4355;SDS011;64374;51.482;7.408;2023-02-18T15:19:54;22.27;;;13.10;;
4355;SDS011;64374;51.482;7.408;2023-02-18T15:22:24;22.60;;;14.77;;
4355;SDS011;64374;51.482;7.408;2023-02-18T15:24:59;22.20;;;13.27;;
4355;SDS011;64374;51.482;7.408;2023-02-18T15:27:30;17.80;;;13.30;;
4355;SDS011;64374;51.482;7.408;2023-02-18T15:30:03;22.10;;;13.17;;
4355;SDS011;64374;51.482;7.408;2023-02-18T15:32:44;26.93;;;14.00;;
4355;SDS011;64374;51.482;7.408;2023-02-18T15:35:19;21.80;;;14.40;;
4355;SDS011;64374;51.482;7.408;2023-02-18T15:37:51;23.50;;;14.30;;
4355;SDS011;64374;51.482;7.408;2023-02-18T15:40:21;22.33;;;13.37;;
4355;SDS011;64374;51.482;7.408;2023-02-18T15:42:54;25.00;;;15.33;;
4355;SDS011;64374;51.482;7.408;2023-02-18T15:45:28;16.73;;;12.00;;
4355;SDS011;64374;51.482;7.408;2023-02-18T15:47:59;23.60;;;14.33;;
4355;SDS011;64374;51.482;7.408;2023-02-18T15:50:30;22.47;;;15.10;;